createdAt,value
2023-02-02T00:02:17.071Z,3.23
2023-02-02T00:04:44.762Z,2.50
2023-02-02T00:07:12.451Z,3.50
2023-02-02T00:09:40.504Z,2.27
2023-02-02T00:12:08.519Z,2.90
2023-02-02T00:14:36.208Z,2.47
2023-02-02T00:17:05.278Z,3.07
2023-02-02T00:19:33.495Z,2.30
2023-02-02T00:22:01.345Z,3.67
2023-02-02T00:24:29.493Z,3.00
2023-02-02T00:26:59.569Z,3.00
2023-02-02T00:29:29.353Z,3.17
2023-02-02T00:31:57.268Z,2.87
2023-02-02T00:34:27.171Z,3.13
2023-02-02T00:36:54.947Z,3.00
2023-02-02T00:39:25.965Z,2.73
2023-02-02T00:41:54.420Z,3.07
2023-02-02T00:44:40.047Z,3.27
2023-02-02T00:47:08.210Z,2.97
2023-02-02T00:49:37.163Z,3.17
2023-02-02T00:52:05.277Z,2.80
2023-02-02T00:54:33.069Z,3.13
2023-02-02T00:57:00.718Z,2.67
2023-02-02T00:59:28.393Z,3.40
2023-02-02T01:01:56.721Z,3.90
2023-02-02T01:04:24.475Z,3.90
2023-02-02T01:06:53.521Z,3.00
2023-02-02T01:09:21.739Z,3.70
2023-02-02T01:11:49.357Z,2.90
2023-02-02T01:14:17.007Z,3.10
2023-02-02T01:16:44.731Z,2.67
2023-02-02T01:19:13.590Z,2.90
2023-02-02T01:21:41.343Z,3.90
2023-02-02T01:24:10.807Z,2.80
2023-02-02T01:26:38.630Z,3.23
2023-02-02T01:29:06.299Z,3.47
2023-02-02T01:31:34.121Z,3.43
2023-02-02T01:34:02.308Z,3.03
2023-02-02T01:36:31.348Z,3.20
2023-02-02T01:38:58.963Z,3.10
2023-02-02T01:41:28.927Z,3.33
2023-02-02T01:43:58.399Z,3.23
2023-02-02T01:46:28.461Z,3.23
2023-02-02T01:49:02.890Z,2.77
2023-02-02T01:51:33.523Z,3.00
2023-02-02T01:54:02.072Z,2.73
2023-02-02T01:56:32.434Z,3.40
2023-02-02T01:59:00.937Z,2.93
2023-02-02T02:01:28.949Z,2.80
2023-02-02T02:03:57.033Z,2.90
2023-02-02T02:06:25.833Z,2.70
2023-02-02T02:08:55.699Z,2.87
2023-02-02T02:11:24.052Z,2.77
2023-02-02T02:14:11.530Z,3.30
2023-02-02T02:16:47.385Z,2.80
2023-02-02T02:19:22.962Z,3.50
2023-02-02T02:22:11.686Z,2.83
2023-02-02T02:25:08.489Z,2.87
2023-02-02T02:27:54.074Z,2.70
2023-02-02T02:30:39.495Z,3.10
2023-02-02T02:33:11.042Z,3.33
2023-02-02T02:35:42.503Z,3.60
2023-02-02T02:38:11.847Z,3.43
2023-02-02T02:40:42.324Z,3.50
2023-02-02T02:43:13.843Z,3.20
2023-02-02T02:45:42.327Z,3.33
2023-02-02T02:48:12.083Z,2.73
2023-02-02T02:50:39.812Z,2.93
2023-02-02T02:53:10.663Z,3.73
2023-02-02T02:55:42.819Z,2.53
2023-02-02T02:58:13.551Z,2.90
2023-02-02T03:00:46.349Z,2.90
2023-02-02T03:03:20.664Z,2.70
2023-02-02T03:05:52.115Z,3.10
2023-02-02T03:08:23.044Z,3.20
2023-02-02T03:10:50.912Z,2.80
2023-02-02T03:13:18.848Z,2.27
2023-02-02T03:15:47.483Z,2.60
2023-02-02T03:18:18.252Z,2.90
2023-02-02T03:20:46.269Z,2.33
2023-02-02T03:23:14.043Z,2.40
2023-02-02T03:25:42.429Z,1.80
2023-02-02T03:28:10.171Z,2.20
2023-02-02T03:30:39.398Z,2.77
2023-02-02T03:33:08.340Z,2.00
2023-02-02T03:35:37.583Z,2.40
2023-02-02T03:38:05.538Z,2.03
2023-02-02T03:40:33.206Z,2.17
2023-02-02T03:43:01.572Z,2.13
2023-02-02T03:45:29.602Z,2.07
2023-02-02T03:47:57.229Z,2.20
2023-02-02T03:50:26.153Z,3.00
2023-02-02T03:52:56.165Z,2.33
2023-02-02T03:55:24.179Z,2.10
2023-02-02T03:57:52.040Z,1.60
2023-02-02T04:00:20.211Z,2.47
2023-02-02T04:02:47.842Z,2.20
2023-02-02T04:05:15.695Z,2.40
2023-02-02T04:07:43.462Z,1.73
2023-02-02T04:10:13.032Z,1.97
2023-02-02T04:12:40.924Z,1.83
2023-02-02T04:15:09.399Z,1.97
2023-02-02T04:17:37.159Z,2.07
2023-02-02T04:20:05.560Z,1.73
2023-02-02T04:22:34.168Z,2.03
2023-02-02T04:25:01.743Z,1.70
2023-02-02T04:27:32.577Z,1.77
2023-02-02T04:30:02.468Z,1.80
2023-02-02T04:32:30.353Z,2.33
2023-02-02T04:34:58.052Z,2.10
2023-02-02T04:37:26.063Z,1.70
2023-02-02T04:39:55.249Z,2.10
2023-02-02T04:42:23.141Z,2.53
2023-02-02T04:44:52.422Z,1.67
2023-02-02T04:47:20.324Z,2.00
2023-02-02T04:49:48.000Z,2.30
2023-02-02T04:52:16.045Z,2.23
2023-02-02T04:54:43.679Z,2.33
2023-02-02T04:57:11.306Z,1.90
2023-02-02T04:59:41.931Z,2.20
2023-02-02T05:02:11.775Z,1.80
2023-02-02T05:04:39.542Z,1.80
2023-02-02T05:07:07.211Z,2.10
2023-02-02T05:09:35.060Z,2.27
2023-02-02T05:12:03.014Z,2.37
2023-02-02T05:14:30.912Z,2.43
2023-02-02T05:16:58.638Z,2.00
2023-02-02T05:19:27.835Z,1.83
2023-02-02T05:21:56.282Z,2.20
2023-02-02T05:24:24.141Z,2.80
2023-02-02T05:26:53.176Z,2.60
2023-02-02T05:29:20.860Z,1.73
2023-02-02T05:31:48.634Z,2.10
2023-02-02T05:34:16.396Z,2.13
2023-02-02T05:36:45.407Z,2.07
2023-02-02T05:39:13.739Z,2.47
2023-02-02T05:41:41.429Z,2.17
2023-02-02T05:44:10.462Z,2.73
2023-02-02T05:46:38.285Z,2.40
2023-02-02T05:49:06.820Z,2.00
2023-02-02T05:51:35.301Z,1.97
2023-02-02T05:54:05.302Z,2.97
2023-02-02T05:56:33.146Z,2.43
2023-02-02T05:59:01.093Z,2.73
2023-02-02T06:01:29.642Z,1.93
2023-02-02T06:03:57.386Z,2.47
2023-02-02T06:06:25.124Z,2.20
2023-02-02T06:08:53.345Z,1.90
2023-02-02T06:11:22.395Z,2.77
2023-02-02T06:13:50.365Z,2.20
2023-02-02T06:16:18.253Z,2.57
2023-02-02T06:18:46.172Z,1.97
2023-02-02T06:21:13.800Z,2.20
2023-02-02T06:23:46.070Z,2.20
2023-02-02T06:26:13.891Z,1.90
2023-02-02T06:28:43.332Z,1.93
2023-02-02T06:31:12.221Z,3.37
2023-02-02T06:33:40.195Z,2.07
2023-02-02T06:36:08.356Z,2.57
2023-02-02T06:38:36.192Z,1.83
2023-02-02T06:41:04.130Z,2.20
2023-02-02T06:43:32.223Z,2.97
2023-02-02T06:46:01.568Z,2.50
2023-02-02T06:48:29.352Z,1.83
2023-02-02T06:50:58.901Z,2.10
2023-02-02T06:53:27.163Z,2.10
2023-02-02T06:55:55.393Z,1.70
2023-02-02T06:58:23.705Z,1.50
2023-02-02T07:00:51.585Z,1.90
2023-02-02T07:03:21.337Z,2.10
2023-02-02T07:05:49.100Z,2.37
2023-02-02T07:08:17.120Z,2.33
2023-02-02T07:11:13.227Z,2.63
2023-02-02T07:13:32.849Z,2.43
2023-02-02T07:16:00.807Z,2.03
2023-02-02T07:18:30.433Z,1.60
2023-02-02T07:20:59.381Z,1.73
2023-02-02T07:23:27.167Z,1.80
2023-02-02T07:26:01.412Z,1.43
2023-02-02T07:28:29.170Z,2.20
2023-02-02T07:30:57.017Z,2.43
2023-02-02T07:33:25.615Z,1.87
2023-02-02T07:35:54.756Z,2.23
2023-02-02T07:38:22.681Z,1.77
2023-02-02T07:40:50.321Z,1.93
2023-02-02T07:43:19.299Z,2.20
2023-02-02T07:45:47.027Z,2.80
2023-02-02T07:48:15.180Z,2.10
2023-02-02T07:50:42.817Z,2.17
2023-02-02T07:53:12.126Z,3.57
2023-02-02T07:55:40.098Z,2.60
2023-02-02T07:58:10.159Z,3.00
2023-02-02T08:00:39.361Z,2.70
2023-02-02T08:03:07.094Z,2.90
2023-02-02T08:05:35.037Z,3.03
2023-02-02T08:08:02.735Z,3.40
2023-02-02T08:10:32.334Z,4.03
2023-02-02T08:13:00.041Z,3.80
2023-02-02T08:15:28.009Z,4.07
2023-02-02T08:17:56.016Z,3.27
2023-02-02T08:20:23.716Z,3.27
2023-02-02T08:22:51.654Z,4.77
2023-02-02T08:25:19.451Z,2.80
2023-02-02T08:27:48.513Z,3.40
2023-02-02T08:30:16.166Z,3.57
2023-02-02T08:32:44.019Z,3.23
2023-02-02T08:35:11.688Z,3.33
2023-02-02T08:37:39.590Z,3.03
2023-02-02T08:40:08.278Z,2.77
2023-02-02T08:42:36.029Z,3.77
2023-02-02T08:46:01.604Z,2.37
2023-02-02T08:48:09.558Z,3.03
2023-02-02T08:50:39.141Z,2.60
2023-02-02T08:53:06.775Z,2.70
2023-02-02T08:55:34.903Z,2.20
2023-02-02T08:58:02.690Z,2.03
2023-02-02T09:00:32.279Z,3.03
2023-02-02T09:03:00.004Z,2.33
2023-02-02T09:05:27.937Z,2.40
2023-02-02T09:07:56.199Z,1.90
2023-02-02T09:10:24.016Z,2.20
2023-02-02T09:12:51.934Z,2.17
2023-02-02T09:15:19.883Z,1.73
2023-02-02T09:17:49.059Z,2.30
2023-02-02T09:20:17.519Z,2.10
2023-02-02T09:22:46.336Z,2.00
2023-02-02T09:25:14.014Z,2.60
2023-02-02T09:27:41.776Z,2.20
2023-02-02T09:30:10.430Z,2.33
2023-02-02T09:32:38.328Z,1.90
2023-02-02T09:35:08.053Z,2.27
2023-02-02T09:37:35.767Z,2.50
2023-02-02T09:40:03.521Z,2.30
2023-02-02T09:42:37.350Z,2.20
2023-02-02T09:45:09.324Z,2.17
2023-02-02T09:47:48.669Z,8.90
2023-02-02T09:50:19.566Z,5.30
2023-02-02T09:52:48.987Z,5.73
2023-02-02T09:55:19.259Z,3.73
2023-02-02T09:57:49.917Z,3.67
2023-02-02T10:00:25.751Z,1.70
2023-02-02T10:02:57.512Z,1.90
2023-02-02T10:05:29.060Z,2.27
2023-02-02T10:07:59.469Z,1.50
2023-02-02T10:10:28.663Z,2.10
2023-02-02T10:12:58.659Z,2.53
2023-02-02T10:15:32.635Z,2.10
2023-02-02T10:18:06.076Z,2.30
2023-02-02T10:20:39.745Z,2.37
2023-02-02T10:23:12.748Z,1.77
2023-02-02T10:25:46.650Z,1.80
2023-02-02T10:28:18.415Z,1.83
2023-02-02T10:30:47.142Z,1.90
2023-02-02T10:33:19.547Z,1.43
2023-02-02T10:35:55.207Z,2.10
2023-02-02T10:38:25.043Z,2.30
2023-02-02T10:40:56.510Z,2.13
2023-02-02T10:43:54.737Z,2.13
2023-02-02T10:46:24.558Z,1.83
2023-02-02T10:49:01.496Z,1.70
2023-02-02T10:51:31.484Z,1.93
2023-02-02T10:54:01.228Z,1.40
2023-02-02T10:56:34.997Z,1.80
2023-02-02T10:59:05.861Z,1.60
2023-02-02T11:01:33.619Z,1.77
2023-02-02T11:04:18.980Z,1.70
2023-02-02T11:06:50.985Z,1.40
2023-02-02T11:09:24.169Z,1.73
2023-02-02T11:11:53.031Z,2.40
2023-02-02T11:14:27.407Z,1.67
2023-02-02T11:17:01.566Z,1.40
2023-02-02T11:19:30.948Z,1.80
2023-02-02T11:22:01.884Z,1.67
2023-02-02T11:24:30.987Z,1.73
2023-02-02T11:27:01.637Z,1.67
2023-02-02T11:29:32.323Z,1.70
2023-02-02T11:32:18.473Z,1.80
2023-02-02T11:34:46.589Z,1.30
2023-02-02T11:37:16.286Z,1.80
2023-02-02T11:39:45.021Z,1.40
2023-02-02T11:42:14.821Z,2.30
2023-02-02T11:44:44.419Z,1.93
2023-02-02T11:47:19.295Z,1.63
2023-02-02T11:49:47.544Z,1.70
2023-02-02T11:52:19.722Z,1.50
2023-02-02T11:54:49.472Z,1.53
2023-02-02T11:57:18.666Z,1.87
2023-02-02T11:59:47.505Z,1.67
2023-02-02T12:02:23.836Z,1.60
2023-02-02T12:04:52.832Z,1.40
2023-02-02T12:07:24.623Z,1.67
2023-02-02T12:09:53.246Z,1.80
2023-02-02T12:12:27.493Z,1.83
2023-02-02T12:14:59.014Z,2.17
2023-02-02T12:17:35.038Z,2.13
2023-02-02T12:20:21.828Z,2.53
2023-02-02T12:22:59.374Z,2.27
2023-02-02T12:25:37.987Z,1.93
2023-02-02T12:28:12.436Z,2.70
2023-02-02T12:30:43.933Z,2.30
2023-02-02T12:33:20.014Z,2.03
2023-02-02T12:36:04.898Z,2.80
2023-02-02T12:38:44.135Z,1.97
2023-02-02T12:41:20.452Z,2.40
2023-02-02T12:43:49.007Z,3.00
2023-02-02T12:46:33.182Z,3.60
2023-02-02T12:49:09.573Z,3.37
2023-02-02T12:51:45.492Z,3.17
2023-02-02T12:54:35.091Z,2.83
2023-02-02T12:57:15.012Z,2.37
2023-02-02T12:59:51.774Z,2.60
2023-02-02T13:02:26.051Z,2.00
2023-02-02T13:05:01.758Z,2.70
2023-02-02T13:07:34.160Z,1.47
2023-02-02T13:10:07.071Z,1.97
2023-02-02T13:12:37.806Z,2.37
2023-02-02T13:15:07.664Z,2.50
2023-02-02T13:17:39.806Z,2.20
2023-02-02T13:20:12.344Z,2.23
2023-02-02T13:22:42.252Z,2.10
2023-02-02T13:25:18.001Z,1.47
2023-02-02T13:27:46.655Z,2.00
2023-02-02T13:30:19.194Z,3.07
2023-02-02T13:32:47.830Z,2.00
2023-02-02T13:35:18.183Z,2.03
2023-02-02T13:37:50.507Z,3.37
2023-02-02T13:40:24.101Z,3.10
2023-02-02T13:42:55.490Z,2.30
2023-02-02T13:45:36.016Z,2.10
2023-02-02T13:48:09.108Z,2.20
2023-02-02T13:50:44.300Z,1.90
2023-02-02T13:53:34.479Z,2.27
2023-02-02T13:56:10.569Z,1.60
2023-02-02T13:58:55.420Z,1.50
2023-02-02T14:01:24.280Z,1.90
2023-02-02T14:03:53.160Z,1.53
2023-02-02T14:06:22.116Z,1.80
2023-02-02T14:08:51.753Z,2.00
2023-02-02T14:11:26.313Z,1.83
2023-02-02T14:14:13.586Z,2.00
2023-02-02T14:16:47.051Z,2.30
2023-02-02T14:19:15.771Z,2.50
2023-02-02T14:22:00.789Z,2.00
2023-02-02T14:24:55.624Z,2.37
2023-02-02T14:27:48.860Z,2.70
2023-02-02T14:30:26.239Z,3.93
2023-02-02T14:33:16.229Z,3.83
2023-02-02T14:35:56.351Z,2.40
2023-02-02T14:38:31.420Z,2.10
2023-02-02T14:41:04.790Z,2.77
2023-02-02T14:43:44.565Z,2.73
2023-02-02T14:46:33.961Z,2.30
2023-02-02T14:49:25.616Z,1.60
2023-02-02T14:51:58.148Z,3.57
2023-02-02T14:54:34.398Z,3.80
2023-02-02T14:57:03.930Z,3.50
2023-02-02T14:59:36.105Z,2.93
2023-02-02T15:02:11.421Z,3.70
2023-02-02T15:04:39.467Z,3.93
2023-02-02T15:07:37.175Z,4.37
2023-02-02T15:10:05.660Z,4.93
2023-02-02T15:12:37.928Z,4.30
2023-02-02T15:15:13.582Z,3.23
2023-02-02T15:17:48.465Z,2.57
2023-02-02T15:20:20.993Z,2.60
2023-02-02T15:22:52.182Z,3.27
2023-02-02T15:25:22.242Z,2.80
2023-02-02T15:27:56.886Z,4.23
2023-02-02T15:30:27.645Z,4.00
2023-02-02T15:32:56.970Z,3.80
2023-02-02T15:35:27.002Z,4.63
2023-02-02T15:38:00.665Z,3.83
2023-02-02T15:40:30.567Z,3.30
2023-02-02T15:43:00.838Z,2.67
2023-02-02T15:45:33.309Z,3.20
2023-02-02T15:48:06.566Z,3.20
2023-02-02T15:50:34.477Z,4.10
2023-02-02T15:53:02.570Z,3.03
2023-02-02T15:55:33.610Z,5.23
2023-02-02T15:58:01.435Z,5.53
2023-02-02T16:00:31.088Z,5.30
2023-02-02T16:03:01.719Z,6.40
2023-02-02T16:05:47.887Z,4.43
2023-02-02T16:08:17.949Z,5.30
2023-02-02T16:10:46.787Z,4.33
2023-02-02T16:13:25.939Z,4.63
2023-02-02T16:15:58.327Z,5.37
2023-02-02T16:18:26.495Z,4.93
2023-02-02T16:20:55.859Z,6.33
2023-02-02T16:23:27.170Z,4.80
2023-02-02T16:25:55.852Z,3.90
2023-02-02T16:28:24.245Z,4.10
2023-02-02T16:30:53.295Z,4.30
2023-02-02T16:33:27.850Z,4.90
2023-02-02T16:35:57.157Z,4.90
2023-02-02T16:38:25.951Z,5.27
2023-02-02T16:41:03.997Z,5.30
2023-02-02T16:43:31.773Z,5.47
2023-02-02T16:46:00.359Z,5.77
2023-02-02T16:48:30.587Z,4.40
2023-02-02T16:51:10.201Z,8.57
2023-02-02T16:53:38.266Z,8.60
2023-02-02T16:56:06.645Z,8.67
2023-02-02T16:58:38.436Z,6.57
2023-02-02T17:01:15.600Z,5.73
2023-02-02T17:03:47.684Z,7.60
2023-02-02T17:06:17.125Z,8.63
2023-02-02T17:08:45.340Z,7.83
2023-02-02T17:11:21.076Z,5.20
2023-02-02T17:13:50.840Z,5.20
2023-02-02T17:16:20.042Z,7.10
2023-02-02T17:21:39.184Z,6.37
2023-02-02T17:24:07.241Z,7.23
2023-02-02T17:26:35.581Z,4.97
2023-02-02T17:29:05.243Z,5.20
2023-02-02T17:31:33.933Z,5.20
2023-02-02T17:34:01.800Z,5.30
2023-02-02T17:36:31.117Z,5.70
2023-02-02T17:39:00.440Z,6.67
2023-02-02T17:41:28.563Z,5.63
2023-02-02T17:43:56.265Z,6.33
2023-02-02T17:46:24.658Z,5.97
2023-02-02T17:48:53.652Z,4.80
2023-02-02T17:51:21.521Z,6.27
2023-02-02T17:53:50.297Z,8.40
2023-02-02T17:56:20.738Z,8.23
2023-02-02T17:58:48.644Z,5.60
2023-02-02T18:01:16.385Z,5.33
2023-02-02T18:03:46.005Z,5.50
2023-02-02T18:06:13.879Z,6.17
2023-02-02T18:08:42.401Z,7.67
2023-02-02T18:11:12.183Z,4.87
2023-02-02T18:13:42.385Z,6.00
2023-02-02T18:16:10.822Z,5.37
2023-02-02T18:18:38.485Z,6.37
2023-02-02T18:21:08.799Z,7.27
2023-02-02T18:23:36.747Z,3.70
2023-02-02T18:26:14.104Z,5.87
2023-02-02T18:28:43.084Z,7.47
2023-02-02T18:31:10.985Z,4.40
2023-02-02T18:33:44.130Z,4.73
2023-02-02T18:36:13.270Z,4.07
2023-02-02T18:38:41.792Z,4.27
2023-02-02T18:41:09.916Z,3.90
2023-02-02T18:43:37.519Z,4.50
2023-02-02T18:46:08.784Z,3.90
2023-02-02T18:48:37.223Z,3.50
2023-02-02T18:51:05.659Z,3.70
2023-02-02T18:53:33.618Z,6.73
2023-02-02T18:56:04.882Z,5.30
2023-02-02T18:58:33.724Z,6.30
2023-02-02T19:01:03.100Z,8.53
2023-02-02T19:03:34.422Z,6.87
2023-02-02T19:06:19.544Z,4.73
2023-02-02T19:08:48.010Z,5.20
2023-02-02T19:11:17.605Z,5.00
2023-02-02T19:13:45.775Z,6.23
2023-02-02T19:16:17.173Z,10.47
2023-02-02T19:18:47.076Z,6.40
2023-02-02T19:21:18.278Z,5.60
2023-02-02T19:23:46.486Z,6.40
2023-02-02T19:26:23.023Z,5.23
2023-02-02T19:28:51.089Z,8.50
2023-02-02T19:31:19.056Z,7.57
2023-02-02T19:33:49.260Z,7.40
2023-02-02T19:36:18.228Z,7.57
2023-02-02T19:38:46.171Z,7.50
2023-02-02T19:41:16.655Z,6.20
2023-02-02T19:43:47.577Z,15.00
2023-02-02T19:46:17.705Z,14.00
2023-02-02T19:48:45.529Z,9.53
2023-02-02T19:51:35.083Z,10.60
2023-02-02T19:54:03.277Z,14.37
2023-02-02T19:56:34.884Z,11.43
2023-02-02T19:59:03.094Z,9.50
2023-02-02T20:01:33.779Z,10.10
2023-02-02T20:04:04.036Z,8.60
2023-02-02T20:06:37.264Z,11.07
2023-02-02T20:09:13.346Z,6.97
2023-02-02T20:11:41.515Z,7.60
2023-02-02T20:14:22.448Z,6.70
2023-02-02T20:16:51.673Z,8.00
2023-02-02T20:19:20.734Z,6.20
2023-02-02T20:21:51.215Z,8.23
2023-02-02T20:24:20.538Z,8.30
2023-02-02T20:26:48.277Z,6.57
2023-02-02T20:29:18.078Z,7.40
2023-02-02T20:31:47.729Z,8.77
2023-02-02T20:34:23.715Z,6.10
2023-02-02T20:36:52.868Z,6.97
2023-02-02T20:39:27.315Z,8.30
2023-02-02T20:41:57.069Z,6.97
2023-02-02T20:44:24.830Z,7.60
2023-02-02T20:46:52.736Z,7.43
2023-02-02T20:49:25.265Z,10.60
2023-02-02T20:51:54.925Z,8.37
2023-02-02T20:54:22.998Z,9.03
2023-02-02T20:56:51.313Z,10.10
2023-02-02T20:59:20.244Z,14.13
2023-02-02T21:01:49.746Z,12.50
2023-02-02T21:04:17.883Z,10.43
2023-02-02T21:06:46.509Z,14.00
2023-02-02T21:09:15.811Z,20.27
2023-02-02T21:11:43.907Z,7.63
2023-02-02T21:14:11.666Z,14.70
2023-02-02T21:16:39.409Z,13.47
2023-02-02T21:19:07.077Z,7.50
2023-02-02T21:21:35.526Z,12.83
2023-02-02T21:24:04.741Z,9.97
2023-02-02T21:26:33.943Z,13.80
2023-02-02T21:29:02.124Z,10.00
2023-02-02T21:31:34.983Z,8.90
2023-02-02T21:34:03.664Z,9.70
2023-02-02T21:36:33.460Z,6.00
2023-02-02T21:39:03.187Z,8.73
2023-02-02T21:41:32.547Z,7.90
2023-02-02T21:44:01.608Z,16.40
2023-02-02T21:46:33.981Z,11.17
2023-02-02T21:49:02.037Z,13.70
2023-02-02T21:51:33.578Z,9.83
2023-02-02T21:54:10.489Z,10.97
2023-02-02T21:56:40.104Z,13.50
2023-02-02T21:59:14.080Z,9.53
2023-02-02T22:01:42.170Z,11.10
2023-02-02T22:04:16.507Z,7.30
2023-02-02T22:06:45.558Z,9.07
2023-02-02T22:09:21.159Z,12.20
2023-02-02T22:11:50.150Z,17.30
2023-02-02T22:14:23.627Z,15.53
2023-02-02T22:16:53.006Z,7.40
2023-02-02T22:19:24.988Z,14.13
2023-02-02T22:21:54.134Z,23.53
2023-02-02T22:24:22.183Z,8.70
2023-02-02T22:26:50.164Z,22.53
2023-02-02T22:29:21.129Z,8.17
2023-02-02T22:31:50.245Z,12.13
2023-02-02T22:34:18.202Z,11.20
2023-02-02T22:36:45.974Z,7.87
2023-02-02T22:39:13.694Z,4.63
2023-02-02T22:41:41.369Z,14.70
2023-02-02T22:44:09.418Z,8.60
2023-02-02T22:46:37.053Z,10.57
2023-02-02T22:49:06.431Z,10.83
2023-02-02T22:51:34.257Z,4.97
2023-02-02T22:54:02.146Z,5.93
2023-02-02T22:56:29.827Z,9.50
2023-02-02T22:58:57.813Z,14.53
2023-02-02T23:01:25.539Z,5.83
2023-02-02T23:03:53.289Z,16.87
2023-02-02T23:06:22.587Z,9.30
2023-02-02T23:08:50.201Z,7.90
2023-02-02T23:11:17.857Z,5.77
2023-02-02T23:13:49.230Z,5.47
2023-02-02T23:16:16.910Z,7.53
2023-02-02T23:18:44.487Z,5.30
2023-02-02T23:21:12.942Z,7.80
2023-02-02T23:23:42.440Z,28.90
2023-02-02T23:26:10.358Z,16.57
2023-02-02T23:28:38.177Z,8.83
2023-02-02T23:31:06.001Z,17.90
2023-02-02T23:33:33.667Z,17.63
2023-02-02T23:36:01.814Z,7.93
2023-02-02T23:38:29.567Z,11.93
2023-02-02T23:41:00.224Z,14.23
2023-02-02T23:43:28.308Z,13.80
2023-02-02T23:45:55.962Z,41.33
2023-02-02T23:48:23.815Z,13.30
2023-02-02T23:50:51.696Z,9.73
2023-02-02T23:53:19.371Z,8.57
2023-02-02T23:55:47.036Z,9.60
2023-02-02T23:58:16.622Z,12.60
